CheckWX is a tool to help pilots better visualize weather data.  It is not intended as a substitute for an official pre-flight weather briefing.

13:35:42 UTC

EPPO METAR
Poznań-Ławica Airport
Poznań, Poland
Current

13 hours ago

EPPO 110100Z 19005KT 3700 BR NSC M03/M03 Q1022
Observed
Dec-11 @ 01:00 UTC
Wind
  • 190° at 5 KTS
Visibility
3,700 meters
Flight Rules
IFR
Conditions
Mist
Cloud Levels
  • Clear skies
Temperature
-3°C / 27°F
Dewpoint
-3°C / 27°F
Humidity
100%
Altimeter
30.18" Hg
Pressure
1021.92 hPa
Previous

13 hours ago

EPPO 110030Z 19003KT 3700 BR NSC M02/M03 Q1022
Observed
Dec-11 @ 00:30 UTC
Wind
  • 190° at 3 KTS
Visibility
3,700 meters
Flight Rules
IFR
Conditions
Mist
Cloud Levels
  • Clear skies
Temperature
-2°C / 28°F
Dewpoint
-3°C / 27°F
Humidity
93%
Altimeter
30.18" Hg
Pressure
1021.92 hPa
Previous

14 hours ago

EPPO 110000Z 18004KT 5000 BR NSC M02/M03 Q1022
Observed
Dec-11 @ 00:00 UTC
Wind
  • 180° at 4 KTS
Visibility
5,000 meters
Flight Rules
MVFR
Conditions
Mist
Cloud Levels
  • Clear skies
Temperature
-2°C / 28°F
Dewpoint
-3°C / 27°F
Humidity
93%
Altimeter
30.18" Hg
Pressure
1021.92 hPa